Time;durP1;ratioP1;P1;durP2;ratioP2;P2;SDS_P1;SDS_P2;PMS_P1;PMS_P2;Temp;Humidity;BMP_temperature;BMP_pressure;BME280_temperature;BME280_humidity;BME280_pressure;Samples;Min_cycle;Max_cycle;Signal;HPM_P1;HPM_P2
2022/01/10 00:00:35;;;;;;;;;;;;;;;16.19;47.07;101146.31;5048713;28;19925;-41
2022/01/10 00:03:02;;;;;;;;;;;;;;;16.18;47.52;101149.97;5042806;28;19956;-41
2022/01/10 00:05:29;;;;;;;;;;;;;;;16.18;47.84;101150.81;5041560;28;19939;-42
2022/01/10 00:07:55;;;;;;;;;;;;;;;16.16;46.79;101151.91;5041189;28;19940;-42
2022/01/10 00:10:21;;;;;;;;;;;;;;;16.16;46.87;101155.47;5044603;28;19928;-42
2022/01/10 00:12:48;;;;;;;;;;;;;;;16.15;46.76;101159.09;5040028;28;20198;-41
2022/01/10 00:15:16;;;;;;;;;;;;;;;16.15;47.66;101161.78;5040892;28;19925;-42
2022/01/10 00:17:43;;;;;;;;;;;;;;;16.14;47.52;101167.25;5041961;28;19925;-42
2022/01/10 00:20:11;;;;;;;;;;;;;;;16.13;47.78;101174.44;5041447;28;20284;-42
2022/01/10 00:22:40;;;;;;;;;;;;;;;16.12;47.47;101178.09;5044413;28;20038;-42
2022/01/10 00:25:06;;;;;;;;;;;;;;;16.11;46.88;101181.75;5043272;28;19931;-42
2022/01/10 00:27:33;;;;;;;;;;;;;;;16.10;46.95;101177.38;5041576;28;19925;-42
2022/01/10 00:29:59;;;;;;;;;;;;;;;16.10;46.70;101185.41;5043085;28;19936;-42
2022/01/10 00:32:25;;;;;;;;;;;;;;;16.09;47.47;101182.88;5040287;28;19929;-41
2022/01/10 00:34:52;;;;;;;;;;;;;;;16.07;47.06;101185.66;5040687;28;19940;-42
2022/01/10 00:37:18;;;;;;;;;;;;;;;16.08;46.83;101197.19;5044403;28;20262;-42
2022/01/10 00:39:47;;;;;;;;;;;;;;;16.07;47.02;101209.72;5042440;28;20718;-42
2022/01/10 00:42:13;;;;;;;;;;;;;;;16.06;47.65;101215.22;5042023;28;20375;-42
2022/01/10 00:44:45;;;;;;;;;;;;;;;16.05;47.03;101217.03;5045246;28;19928;-41
2022/01/10 00:47:12;;;;;;;;;;;;;;;16.05;46.95;101214.38;5046664;28;19986;-42
2022/01/10 00:49:38;;;;;;;;;;;;;;;16.04;47.96;101218.03;5047066;28;19928;-42
2022/01/10 00:52:05;;;;;;;;;;;;;;;16.04;46.85;101216.19;5046935;28;19929;-43
2022/01/10 00:54:32;;;;;;;;;;;;;;;16.03;47.11;101221.66;5044757;28;20292;-43
2022/01/10 00:56:58;;;;;;;;;;;;;;;16.04;46.83;101228.72;5044830;28;20224;-43
2022/01/10 00:59:24;;;;;;;;;;;;;;;16.03;47.36;101232.34;5043688;28;19994;-42
2022/01/10 01:01:51;;;;;;;;;;;;;;;16.00;47.59;101232.59;5046283;28;19932;-42
2022/01/10 01:04:18;;;;;;;;;;;;;;;16.02;46.83;101233.34;5047075;28;20023;-42
2022/01/10 01:06:45;;;;;;;;;;;;;;;16.01;47.37;101242.34;5045725;28;19932;-42
2022/01/10 01:09:15;;;;;;;;;;;;;;;16.00;46.96;101235.28;5043704;28;20235;-42
2022/01/10 01:12:12;;;;;;;;;;;;;;;15.98;46.99;101232.75;5043589;28;20019;-42
2022/01/10 01:17:32;;;;;;;;;;;;;;;15.97;46.67;101247.09;5045261;28;19929;-42
2022/01/10 01:25:11;;;;;;;;;;;;;;;15.94;46.90;101247.34;5042316;28;19931;-40
2022/01/10 01:27:39;;;;;;;;;;;;;;;15.92;46.63;101246.66;5042949;28;19972;-41
2022/01/10 01:30:07;;;;;;;;;;;;;;;15.91;46.62;101255.63;5047234;28;19933;-41
2022/01/10 01:32:33;;;;;;;;;;;;;;;15.90;46.71;101266.47;5046061;28;20386;-40
2022/01/10 01:35:05;;;;;;;;;;;;;;;15.91;46.68;101270.81;5040271;28;19929;-41
2022/01/10 01:37:31;;;;;;;;;;;;;;;15.89;47.70;101284.31;5052238;28;19934;-40
2022/01/10 01:39:58;;;;;;;;;;;;;;;15.89;47.19;101278.13;5049232;28;19928;-40
2022/01/10 01:42:37;;;;;;;;;;;;;;;15.87;46.76;101283.59;5044893;28;19935;-41
2022/01/10 01:45:06;;;;;;;;;;;;;;;15.86;47.78;101281.91;5045825;28;19931;-42
2022/01/10 01:47:32;;;;;;;;;;;;;;;15.87;47.72;101282.75;5046043;28;20008;-42
2022/01/10 01:49:59;;;;;;;;;;;;;;;15.86;46.90;101291.75;5041494;28;19960;-43
2022/01/10 01:52:27;;;;;;;;;;;;;;;15.85;46.70;101301.59;5046499;28;20309;-44
2022/01/10 01:54:53;;;;;;;;;;;;;;;15.85;46.73;101303.44;5044085;28;19975;-42
2022/01/10 01:57:20;;;;;;;;;;;;;;;15.84;47.65;101310.59;5044891;28;20235;-42
2022/01/10 01:59:47;;;;;;;;;;;;;;;15.81;47.31;101308.19;5045909;28;19925;-42
2022/01/10 02:02:13;;;;;;;;;;;;;;;15.83;46.94;101316.91;5038786;28;19931;-42
2022/01/10 02:04:40;;;;;;;;;;;;;;;15.83;47.31;101329.41;5045459;28;19979;-41
2022/01/10 02:07:07;;;;;;;;;;;;;;;15.81;47.28;101324.22;5044354;28;19977;-42
2022/01/10 02:09:33;;;;;;;;;;;;;;;15.79;46.87;101323.47;5046153;28;19925;-42
2022/01/10 02:11:59;;;;;;;;;;;;;;;15.80;46.84;101349.25;5041486;28;19936;-41
2022/01/10 02:14:26;;;;;;;;;;;;;;;15.78;47.93;101344.00;5046576;28;19925;-42
2022/01/10 02:16:55;;;;;;;;;;;;;;;15.78;47.67;101344.00;5041988;28;20004;-41
2022/01/10 02:19:22;;;;;;;;;;;;;;;15.78;47.66;101360.06;5046812;28;20271;-42
2022/01/10 02:21:49;;;;;;;;;;;;;;;15.76;47.83;101356.69;5045112;28;20487;-42
2022/01/10 02:24:15;;;;;;;;;;;;;;;15.75;47.90;101352.28;5047277;28;19925;-42
2022/01/10 02:26:46;;;;;;;;;;;;;;;15.76;47.73;101363.84;5044003;28;19932;-42
2022/01/10 02:29:12;;;;;;;;;;;;;;;15.74;47.88;101369.28;5044267;28;19943;-42
2022/01/10 02:31:40;;;;;;;;;;;;;;;15.74;46.93;101377.31;5043913;28;19933;-41
2022/01/10 02:34:07;;;;;;;;;;;;;;;15.72;47.72;101379.28;5048772;28;20229;-41
2022/01/10 02:36:33;;;;;;;;;;;;;;;15.71;47.80;101382.91;5044466;28;19924;-40
2022/01/10 02:39:02;;;;;;;;;;;;;;;15.72;47.14;101383.78;5041243;28;19932;-41
2022/01/10 02:41:33;;;;;;;;;;;;;;;15.72;46.90;101398.00;5042494;28;19925;-40
2022/01/10 02:44:01;;;;;;;;;;;;;;;15.71;46.94;101408.78;5040945;28;20224;-41
2022/01/10 02:46:30;;;;;;;;;;;;;;;15.71;46.97;101406.09;5040171;28;19928;-41
2022/01/10 02:48:57;;;;;;;;;;;;;;;15.70;47.18;101399.91;5044030;28;19935;-42
2022/01/10 02:51:23;;;;;;;;;;;;;;;15.70;47.75;101409.75;5042450;28;20101;-41
2022/01/10 02:53:50;;;;;;;;;;;;;;;15.69;47.87;101413.41;5044910;28;19933;-41
2022/01/10 02:56:16;;;;;;;;;;;;;;;15.69;46.85;101418.75;5045180;28;20023;-42
2022/01/10 02:58:43;;;;;;;;;;;;;;;15.67;47.33;101418.88;5042676;28;19925;-41
2022/01/10 03:01:09;;;;;;;;;;;;;;;15.67;46.85;101426.03;5046620;28;20027;-46
2022/01/10 03:03:36;;;;;;;;;;;;;;;15.67;47.77;101426.03;5045164;28;20043;-41
2022/01/10 03:06:03;;;;;;;;;;;;;;;15.66;46.94;101429.69;5045296;28;19931;-41
2022/01/10 03:08:30;;;;;;;;;;;;;;;15.65;47.72;101438.69;5041344;28;19935;-42
2022/01/10 03:10:57;;;;;;;;;;;;;;;15.65;47.55;101430.69;5041207;28;19936;-41
2022/01/10 03:13:23;;;;;;;;;;;;;;;15.64;47.08;101435.13;5039463;28;19948;-42
2022/01/10 03:15:50;;;;;;;;;;;;;;;15.64;47.64;101428.91;5052091;28;19925;-40
2022/01/10 03:18:16;;;;;;;;;;;;;;;15.63;47.46;101435.25;5042307;28;20002;-42
2022/01/10 03:20:42;;;;;;;;;;;;;;;15.65;47.64;101444.03;5042009;28;19925;-41
2022/01/10 03:23:09;;;;;;;;;;;;;;;15.64;47.80;101450.28;5044804;28;19936;-41
2022/01/10 03:25:36;;;;;;;;;;;;;;;15.65;46.90;101463.59;5043874;28;19951;-41
2022/01/10 03:28:02;;;;;;;;;;;;;;;15.64;46.92;101472.56;5039661;28;20030;-42
2022/01/10 03:30:29;;;;;;;;;;;;;;;15.64;47.09;101475.22;5045491;28;19935;-41
2022/01/10 03:32:57;;;;;;;;;;;;;;;15.66;46.96;101488.47;5039114;28;20312;-41
2022/01/10 03:35:24;;;;;;;;;;;;;;;15.62;46.86;101485.16;5042423;28;19951;-41
2022/01/10 03:37:50;;;;;;;;;;;;;;;15.65;47.24;101481.44;5042532;28;20229;-42
2022/01/10 03:40:16;;;;;;;;;;;;;;;15.64;47.91;101477.03;5044661;28;19930;-42
2022/01/10 03:42:43;;;;;;;;;;;;;;;15.63;47.42;101486.00;5044169;28;19929;-42
2022/01/10 03:45:09;;;;;;;;;;;;;;;15.63;47.15;101494.03;5044780;28;19933;-42
2022/01/10 03:47:36;;;;;;;;;;;;;;;15.62;47.04;101493.19;5043461;28;19932;-41
2022/01/10 03:50:04;;;;;;;;;;;;;;;15.62;47.08;101514.56;5041942;28;20032;-41
2022/01/10 03:52:31;;;;;;;;;;;;;;;15.62;47.03;101513.72;5040338;28;20015;-41
2022/01/10 03:54:57;;;;;;;;;;;;;;;15.62;48.00;101521.72;5040173;28;19940;-41
2022/01/10 03:57:23;;;;;;;;;;;;;;;15.62;46.95;101525.25;5042320;28;19931;-41
2022/01/10 03:59:50;;;;;;;;;;;;;;;15.61;47.95;101526.22;5045361;28;20004;-42
2022/01/10 04:02:16;;;;;;;;;;;;;;;15.61;48.08;101520.03;5042508;28;19925;-42
2022/01/10 04:04:43;;;;;;;;;;;;;;;15.61;47.96;101522.72;5043794;28;19929;-43
2022/01/10 04:07:12;;;;;;;;;;;;;;;15.68;46.89;101529.31;5041361;28;19940;-42
2022/01/10 04:09:38;;;;;;;;;;;;;;;15.76;46.73;101522.38;5042356;28;21176;-41
2022/01/10 04:12:04;;;;;;;;;;;;;;;15.85;46.79;101531.47;5045099;28;19933;-42
2022/01/10 04:14:31;;;;;;;;;;;;;;;15.95;46.31;101531.59;5041453;28;19943;-42
2022/01/10 04:16:57;;;;;;;;;;;;;;;16.05;46.38;101535.22;5044162;28;20252;-42
2022/01/10 04:19:24;;;;;;;;;;;;;;;16.17;47.25;101541.41;5045622;28;20024;-41
2022/01/10 04:21:50;;;;;;;;;;;;;;;16.28;46.85;101550.28;5048857;28;20259;-40
2022/01/10 04:24:16;;;;;;;;;;;;;;;16.38;46.94;101545.00;5043525;28;20320;-42
2022/01/10 04:26:43;;;;;;;;;;;;;;;16.49;46.98;101561.03;5048845;28;19939;-42
2022/01/10 04:29:09;;;;;;;;;;;;;;;16.60;46.89;101562.81;5044239;28;19928;-42
2022/01/10 04:31:35;;;;;;;;;;;;;;;16.69;46.94;101570.09;5048430;28;20222;-41
2022/01/10 04:34:02;;;;;;;;;;;;;;;16.77;46.75;101567.66;5042700;28;19925;-42
2022/01/10 04:36:29;;;;;;;;;;;;;;;16.85;45.95;101576.88;5041749;28;19929;-42
2022/01/10 04:38:55;;;;;;;;;;;;;;;16.93;46.77;101574.41;5049301;28;19925;-42
2022/01/10 04:41:21;;;;;;;;;;;;;;;17.00;46.08;101578.25;5048217;28;19932;-42
2022/01/10 04:43:48;;;;;;;;;;;;;;;17.07;46.75;101594.69;5046700;28;19924;-42
2022/01/10 04:46:14;;;;;;;;;;;;;;;17.13;46.11;101583.47;5050371;28;19935;-42
2022/01/10 04:48:41;;;;;;;;;;;;;;;17.17;46.52;101598.28;5044437;28;20249;-41
2022/01/10 04:51:15;;;;;;;;;;;;;;;17.23;46.31;101603.97;5042548;28;19924;-42
2022/01/10 04:53:46;;;;;;;;;;;;;;;17.26;46.14;101605.53;5047803;28;20028;-42
2022/01/10 04:56:13;;;;;;;;;;;;;;;17.30;46.28;101612.34;5045638;28;20366;-42
2022/01/10 04:58:40;;;;;;;;;;;;;;;17.31;46.13;101624.75;5047567;28;19933;-42
2022/01/10 05:01:06;;;;;;;;;;;;;;;17.32;45.57;101626.44;5048346;28;19924;-42
2022/01/10 05:03:33;;;;;;;;;;;;;;;17.32;45.54;101630.94;5046264;28;19935;-42
2022/01/10 05:06:00;;;;;;;;;;;;;;;17.30;45.25;101636.44;5043822;28;19939;-42
2022/01/10 05:08:26;;;;;;;;;;;;;;;17.28;45.87;101638.41;5047118;28;19932;-42
2022/01/10 05:10:53;;;;;;;;;;;;;;;17.23;45.94;101638.78;5045844;28;20004;-42
2022/01/10 05:13:20;;;;;;;;;;;;;;;17.19;45.52;101649.91;5047230;28;20019;-41
2022/01/10 05:15:49;;;;;;;;;;;;;;;17.14;45.01;101657.47;5043662;28;19944;-42
2022/01/10 05:18:17;;;;;;;;;;;;;;;17.09;45.83;101651.66;5047586;28;20308;-42
2022/01/10 05:20:43;;;;;;;;;;;;;;;17.03;45.58;101655.69;5045554;28;20332;-42
2022/01/10 05:23:10;;;;;;;;;;;;;;;16.99;45.90;101664.94;5042882;28;19929;-42
2022/01/10 05:25:40;;;;;;;;;;;;;;;16.94;46.35;101661.81;5043776;28;19931;-42
2022/01/10 05:28:10;;;;;;;;;;;;;;;16.90;46.18;101673.75;5039264;28;20228;-42
2022/01/10 05:30:37;;;;;;;;;;;;;;;16.85;46.25;101682.16;5044850;28;19928;-41
2022/01/10 05:33:04;;;;;;;;;;;;;;;16.82;45.77;101679.72;5045949;28;20007;-42
2022/01/10 05:35:30;;;;;;;;;;;;;;;16.77;46.14;101687.28;5045144;28;19933;-41
2022/01/10 05:37:57;;;;;;;;;;;;;;;16.75;46.15;101702.59;5046330;28;20199;-42
2022/01/10 05:40:23;;;;;;;;;;;;;;;16.70;45.80;101700.28;5047352;28;20220;-42
2022/01/10 05:42:49;;;;;;;;;;;;;;;16.67;45.95;101700.50;5043756;28;19946;-42
2022/01/10 05:45:16;;;;;;;;;;;;;;;16.65;46.99;101713.19;5042129;28;19931;-41
2022/01/10 05:47:45;;;;;;;;;;;;;;;16.62;46.71;101712.56;5044734;28;19955;-40
2022/01/10 05:50:12;;;;;;;;;;;;;;;16.59;46.53;101710.13;5046927;28;20396;-42
2022/01/10 05:52:39;;;;;;;;;;;;;;;16.56;46.94;101715.72;5045354;28;20412;-41
2022/01/10 05:55:06;;;;;;;;;;;;;;;16.52;46.92;101709.78;5041303;28;19928;-40
2022/01/10 05:57:32;;;;;;;;;;;;;;;16.49;45.85;101716.22;5045441;28;19925;-42
2022/01/10 05:59:58;;;;;;;;;;;;;;;16.47;46.86;101720.84;5043937;28;19957;-41
2022/01/10 06:02:25;;;;;;;;;;;;;;;16.46;46.35;101727.19;5046223;28;20179;-42
2022/01/10 06:04:51;;;;;;;;;;;;;;;16.44;46.49;101725.59;5044667;28;19975;-42
2022/01/10 06:07:18;;;;;;;;;;;;;;;16.39;46.26;101733.97;5043033;28;19928;-42
2022/01/10 06:09:44;;;;;;;;;;;;;;;16.38;46.76;101734.97;5046278;28;20489;-42
2022/01/10 06:12:11;;;;;;;;;;;;;;;16.35;46.12;101745.91;5043055;28;19925;-43
2022/01/10 06:14:37;;;;;;;;;;;;;;;16.34;45.96;101749.56;5041625;28;19929;-42
2022/01/10 06:17:04;;;;;;;;;;;;;;;16.33;46.61;101749.69;5043935;28;19933;-42
2022/01/10 06:19:30;;;;;;;;;;;;;;;16.29;46.21;101759.78;5043394;28;19933;-43
2022/01/10 06:21:56;;;;;;;;;;;;;;;16.27;46.26;101765.22;5046744;28;19935;-41
2022/01/10 06:24:23;;;;;;;;;;;;;;;16.25;46.84;101775.19;5044352;28;19932;-42
2022/01/10 06:26:50;;;;;;;;;;;;;;;16.23;46.93;101779.81;5041643;28;19933;-42
2022/01/10 06:29:16;;;;;;;;;;;;;;;16.20;46.96;101788.09;5045056;28;21265;-43
2022/01/10 06:31:42;;;;;;;;;;;;;;;16.19;46.62;101782.84;5038291;28;20052;-42
2022/01/10 06:34:09;;;;;;;;;;;;;;;16.18;47.35;101781.16;5042969;28;19924;-41
2022/01/10 06:36:35;;;;;;;;;;;;;;;16.15;46.13;101792.91;5040669;28;19939;-41
2022/01/10 06:39:02;;;;;;;;;;;;;;;16.16;47.34;101793.75;5040787;28;19929;-43
2022/01/10 06:41:28;;;;;;;;;;;;;;;16.13;46.38;101802.91;5039555;28;19932;-42
2022/01/10 06:43:55;;;;;;;;;;;;;;;16.11;47.29;101807.50;5041254;28;19924;-42
2022/01/10 06:46:21;;;;;;;;;;;;;;;16.10;47.15;101805.81;5044679;28;19929;-41
2022/01/10 06:48:47;;;;;;;;;;;;;;;16.10;46.39;101812.97;5039188;28;20228;-41
2022/01/10 06:51:14;;;;;;;;;;;;;;;16.07;46.28;101814.06;5037566;28;19929;-42
2022/01/10 06:53:40;;;;;;;;;;;;;;;16.06;47.06;101825.72;5039619;28;20012;-42
2022/01/10 06:56:07;;;;;;;;;;;;;;;16.03;47.29;101834.81;5039578;28;19935;-43
2022/01/10 06:58:33;;;;;;;;;;;;;;;16.03;47.16;101833.97;5043613;28;20035;-42
2022/01/10 07:01:00;;;;;;;;;;;;;;;16.01;46.26;101849.28;5039468;28;19964;-42
2022/01/10 07:03:26;;;;;;;;;;;;;;;15.99;46.57;101852.06;5040142;28;19979;-43
2022/01/10 07:05:53;;;;;;;;;;;;;;;15.97;46.83;101851.34;5041163;28;20210;-42
2022/01/10 07:08:20;;;;;;;;;;;;;;;15.95;46.50;101855.09;5035680;28;19925;-41
2022/01/10 07:10:46;;;;;;;;;;;;;;;15.94;46.28;101862.25;5035123;28;19932;-42
2022/01/10 07:13:13;;;;;;;;;;;;;;;15.93;46.23;101868.59;5037814;28;20228;-42
2022/01/10 07:15:39;;;;;;;;;;;;;;;15.90;46.70;101875.97;5038028;28;19935;-42
2022/01/10 07:18:05;;;;;;;;;;;;;;;15.90;46.11;101878.66;5037877;28;20051;-41
2022/01/10 07:20:33;;;;;;;;;;;;;;;15.90;46.17;101884.00;5043061;28;19947;-42
2022/01/10 07:22:59;;;;;;;;;;;;;;;15.88;46.49;101894.81;5039757;28;19928;-41
2022/01/10 07:25:25;;;;;;;;;;;;;;;15.87;46.38;101902.94;5040881;28;19928;-42
2022/01/10 07:27:52;;;;;;;;;;;;;;;15.87;47.32;101909.13;5045873;28;19983;-41
2022/01/10 07:30:18;;;;;;;;;;;;;;;15.86;46.98;101914.59;5039089;28;20228;-42
2022/01/10 07:32:45;;;;;;;;;;;;;;;15.84;46.78;101917.41;5039996;28;20185;-40
2022/01/10 07:35:11;;;;;;;;;;;;;;;15.81;46.16;101914.09;5039509;28;19928;-42
2022/01/10 07:37:38;;;;;;;;;;;;;;;15.81;46.54;101930.13;5041385;28;19936;-43
2022/01/10 07:40:04;;;;;;;;;;;;;;;15.79;47.19;101941.78;5041197;28;20004;-42
2022/01/10 07:42:31;;;;;;;;;;;;;;;15.78;46.19;101936.56;5044450;28;20019;-42
2022/01/10 07:44:57;;;;;;;;;;;;;;;15.77;47.02;101946.38;5041286;28;19928;-43
2022/01/10 07:47:23;;;;;;;;;;;;;;;15.76;46.61;101952.72;5040548;28;19929;-41
2022/01/10 07:49:51;;;;;;;;;;;;;;;15.76;47.31;101959.88;5042742;28;19925;-43
2022/01/10 07:52:18;;;;;;;;;;;;;;;15.75;46.18;101952.81;5039175;28;20039;-41
2022/01/10 07:54:44;;;;;;;;;;;;;;;15.75;46.67;101959.00;5042185;28;19928;-43
2022/01/10 07:57:11;;;;;;;;;;;;;;;15.74;46.31;101968.00;5036986;28;20468;-42
2022/01/10 07:59:37;;;;;;;;;;;;;;;15.74;46.41;101975.16;5037030;28;20162;-43
2022/01/10 08:02:03;;;;;;;;;;;;;;;15.74;46.45;101984.03;5042944;28;19925;-43
2022/01/10 08:04:30;;;;;;;;;;;;;;;15.72;47.51;101994.00;5038923;28;20016;-44
2022/01/10 08:06:57;;;;;;;;;;;;;;;15.73;47.00;101998.38;5038363;28;19932;-43
2022/01/10 08:09:23;;;;;;;;;;;;;;;15.71;46.48;101994.94;5040518;28;20486;-42
2022/01/10 08:11:49;;;;;;;;;;;;;;;15.71;46.30;101997.59;5039122;28;20376;-43
2022/01/10 08:14:16;;;;;;;;;;;;;;;15.71;46.40;102010.13;5040748;28;21278;-43
2022/01/10 08:16:42;;;;;;;;;;;;;;;15.70;46.73;102006.59;5041108;28;19935;-43
2022/01/10 08:19:09;;;;;;;;;;;;;;;15.70;46.26;102019.97;5042015;28;19925;-43
2022/01/10 08:21:35;;;;;;;;;;;;;;;15.68;46.83;102021.91;5041895;28;19935;-43
2022/01/10 08:24:01;;;;;;;;;;;;;;;15.68;46.75;102024.56;5040395;28;19928;-43
2022/01/10 08:26:28;;;;;;;;;;;;;;;15.67;47.18;102038.88;5035344;28;20000;-43
2022/01/10 08:28:54;;;;;;;;;;;;;;;15.68;47.47;102037.09;5043478;28;19929;-43
2022/01/10 08:31:21;;;;;;;;;;;;;;;15.67;46.79;102046.03;5041040;28;19935;-43
2022/01/10 08:33:48;;;;;;;;;;;;;;;15.68;46.61;102048.63;5036447;28;20034;-43
2022/01/10 08:36:14;;;;;;;;;;;;;;;15.67;47.40;102060.25;5042551;28;19968;-43
2022/01/10 08:38:41;;;;;;;;;;;;;;;15.66;47.11;102060.38;5039872;28;20373;-42
2022/01/10 08:41:07;;;;;;;;;;;;;;;15.67;46.51;102062.94;5039505;28;20043;-41
2022/01/10 08:43:34;;;;;;;;;;;;;;;15.66;47.27;102065.72;5040326;28;20039;-40
2022/01/10 08:46:00;;;;;;;;;;;;;;;15.67;46.78;102068.28;5041302;28;19939;-42
2022/01/10 08:48:27;;;;;;;;;;;;;;;15.69;47.25;102070.88;5040158;28;19933;-42
2022/01/10 08:50:53;;;;;;;;;;;;;;;15.70;47.67;102072.56;5045747;28;19924;-42
2022/01/10 08:53:20;;;;;;;;;;;;;;;15.71;47.31;102083.13;5038270;28;19998;-42
2022/01/10 08:55:51;;;;;;;;;;;;;;;15.71;47.97;102076.94;5039357;28;19932;-43
2022/01/10 08:58:18;;;;;;;;;;;;;;;15.73;48.75;102078.56;5042892;28;20581;-42
2022/01/10 09:00:45;;;;;;;;;;;;;;;15.76;47.73;102088.19;5042040;28;20011;-44
2022/01/10 09:03:11;;;;;;;;;;;;;;;15.76;47.63;102081.03;5040757;28;19968;-42
2022/01/10 09:05:38;;;;;;;;;;;;;;;15.78;47.64;102083.56;5043657;28;19975;-41
2022/01/10 09:08:05;;;;;;;;;;;;;;;15.79;48.49;102087.94;5041080;28;19939;-42
2022/01/10 09:10:32;;;;;;;;;;;;;;;15.82;48.14;102081.53;5042686;28;20259;-42
2022/01/10 09:12:58;;;;;;;;;;;;;;;15.84;48.24;102100.97;5042328;28;19932;-42
2022/01/10 09:15:25;;;;;;;;;;;;;;;15.87;47.75;102090.06;5040784;28;19955;-42
2022/01/10 09:17:52;;;;;;;;;;;;;;;15.90;48.84;102098.75;5044050;28;19963;-42
2022/01/10 09:20:19;;;;;;;;;;;;;;;15.92;49.01;102095.94;5042646;28;20007;-41
2022/01/10 09:22:45;;;;;;;;;;;;;;;15.95;48.11;102103.75;5040740;28;19963;-43
2022/01/10 09:25:12;;;;;;;;;;;;;;;15.98;48.59;102108.88;5043601;28;20008;-43
2022/01/10 09:27:39;;;;;;;;;;;;;;;16.02;49.08;102115.72;5043571;28;19933;-42
2022/01/10 09:30:06;;;;;;;;;;;;;;;16.04;49.35;102124.50;5046867;28;20292;-42
2022/01/10 09:32:32;;;;;;;;;;;;;;;16.06;49.64;102117.22;5044664;28;20019;-42
2022/01/10 09:34:59;;;;;;;;;;;;;;;16.08;48.73;102125.13;5043470;28;20305;-43
2022/01/10 09:37:25;;;;;;;;;;;;;;;16.10;49.36;102137.44;5040914;28;19925;-42
2022/01/10 09:39:57;;;;;;;;;;;;;;;16.12;49.16;102138.19;5044123;28;19936;-42
2022/01/10 09:42:23;;;;;;;;;;;;;;;16.13;49.51;102147.06;5043405;28;19931;-43
2022/01/10 09:44:50;;;;;;;;;;;;;;;16.13;48.72;102145.25;5041806;28;20272;-42
2022/01/10 09:47:17;;;;;;;;;;;;;;;16.14;48.24;102152.28;5046782;28;19932;-43
2022/01/10 09:49:43;;;;;;;;;;;;;;;16.16;48.12;102160.19;5043606;28;19963;-42
2022/01/10 09:52:10;;;;;;;;;;;;;;;16.16;48.43;102162.88;5043115;28;19936;-42
2022/01/10 09:54:36;;;;;;;;;;;;;;;16.16;48.97;102171.78;5045875;28;20224;-42
2022/01/10 09:57:03;;;;;;;;;;;;;;;16.16;48.58;102177.13;5040558;28;19932;-43
2022/01/10 09:59:30;;;;;;;;;;;;;;;16.17;49.00;102189.53;5038643;28;19928;-42
2022/01/10 10:01:57;;;;;;;;;;;;;;;16.16;48.44;102198.53;5044272;28;20408;-43
2022/01/10 10:04:23;;;;;;;;;;;;;;;16.16;49.00;102208.34;5042736;28;19992;-42
2022/01/10 10:06:50;;;;;;;;;;;;;;;16.15;49.22;102218.19;5043892;28;19932;-42
2022/01/10 10:09:17;;;;;;;;;;;;;;;16.16;48.83;102219.94;5041030;28;19933;-44
2022/01/10 10:11:44;;;;;;;;;;;;;;;16.15;48.13;102228.03;5039710;28;19980;-42
2022/01/10 10:14:12;;;;;;;;;;;;;;;16.14;48.88;102227.19;5043075;28;20020;-41
2022/01/10 10:16:42;;;;;;;;;;;;;;;16.15;48.07;102233.41;5042447;28;20374;-43
2022/01/10 10:19:08;;;;;;;;;;;;;;;16.15;49.14;102228.03;5042776;28;19946;-42
2022/01/10 10:21:35;;;;;;;;;;;;;;;16.13;48.95;102238.88;5047116;28;20336;-42
2022/01/10 10:24:04;;;;;;;;;;;;;;;16.14;48.12;102240.56;5044452;28;19929;-43
2022/01/10 10:26:31;;;;;;;;;;;;;;;16.15;48.23;102238.75;5040448;28;19932;-42
2022/01/10 10:28:58;;;;;;;;;;;;;;;16.13;47.82;102257.59;5042894;28;20012;-42
2022/01/10 10:31:26;;;;;;;;;;;;;;;16.16;48.58;102248.47;5040643;28;20016;-42
2022/01/10 10:33:53;;;;;;;;;;;;;;;16.13;47.78;102248.72;5041427;28;19932;-43
2022/01/10 10:36:19;;;;;;;;;;;;;;;16.15;48.51;102239.59;5042402;28;19972;-41
2022/01/10 10:38:46;;;;;;;;;;;;;;;16.15;48.23;102247.63;5042258;28;19955;-42
2022/01/10 10:41:12;;;;;;;;;;;;;;;16.16;48.48;102252.03;5043533;28;20023;-43
2022/01/10 10:43:40;;;;;;;;;;;;;;;16.18;47.71;102255.44;5039178;28;20004;-43
2022/01/10 10:46:11;;;;;;;;;;;;;;;16.19;48.37;102259.81;5042132;28;20324;-39
2022/01/10 10:48:39;;;;;;;;;;;;;;;16.20;48.59;102260.66;5039520;28;19932;-41
2022/01/10 10:51:05;;;;;;;;;;;;;;;16.22;48.26;102270.31;5041427;28;19959;-39
2022/01/10 10:53:32;;;;;;;;;;;;;;;16.23;48.22;102273.84;5039385;28;19968;-41
2022/01/10 10:56:00;;;;;;;;;;;;;;;16.24;47.22;102283.56;5040419;28;20016;-39
2022/01/10 10:58:30;;;;;;;;;;;;;;;16.25;47.33;102285.31;5041724;28;19935;-42
2022/01/10 11:00:57;;;;;;;;;;;;;;;16.25;47.28;102286.16;5039876;28;19959;-42
2022/01/10 11:03:24;;;;;;;;;;;;;;;16.26;47.99;102292.34;5040633;28;20424;-40
2022/01/10 11:05:54;;;;;;;;;;;;;;;16.26;48.08;102295.03;5042760;28;19929;-42
2022/01/10 11:08:22;;;;;;;;;;;;;;;16.26;47.65;102290.53;5039297;28;20015;-40
2022/01/10 11:10:52;;;;;;;;;;;;;;;16.26;48.50;102295.88;5039923;28;19949;-41
2022/01/10 11:13:21;;;;;;;;;;;;;;;16.27;47.50;102302.94;5045166;28;20278;-39
2022/01/10 11:15:48;;;;;;;;;;;;;;;16.27;47.80;102299.41;5036657;28;19925;-41
2022/01/10 11:18:15;;;;;;;;;;;;;;;16.26;48.93;102295.88;5040514;28;19976;-41
2022/01/10 11:20:43;;;;;;;;;;;;;;;16.28;49.00;102299.34;5039840;28;20047;-40
2022/01/10 11:23:29;;;;;;;;;;;;;;;16.33;48.50;102304.34;5040405;28;19933;-41
2022/01/10 11:25:56;;;;;;;;;;;;;;;16.38;49.42;102314.72;5038019;28;20023;-40
2022/01/10 11:28:24;;;;;;;;;;;;;;;16.40;49.09;102312.78;5042386;28;19924;-41
2022/01/10 11:30:51;;;;;;;;;;;;;;;16.44;48.85;102325.88;5037837;28;19957;-41
2022/01/10 11:33:22;;;;;;;;;;;;;;;16.49;48.66;102326.41;5039373;28;19932;-41
2022/01/10 11:35:50;;;;;;;;;;;;;;;16.54;48.56;102328.75;5040749;28;20028;-41
2022/01/10 11:38:17;;;;;;;;;;;;;;;16.59;48.30;102328.44;5040788;28;19936;-43
2022/01/10 11:40:43;;;;;;;;;;;;;;;16.64;47.82;102334.31;5040148;28;20261;-41
2022/01/10 11:43:25;;;;;;;;;;;;;;;16.67;48.29;102329.59;5041241;28;20289;-42
2022/01/10 11:46:17;;;;;;;;;;;;;;;16.71;47.36;102332.91;5040423;28;20302;-41
2022/01/10 11:48:45;;;;;;;;;;;;;;;16.73;47.55;102329.22;5043207;28;19939;-41
2022/01/10 11:51:15;;;;;;;;;;;;;;;16.75;46.78;102337.97;5043567;28;19925;-43
2022/01/10 11:53:46;;;;;;;;;;;;;;;16.75;47.46;102340.66;5037270;28;20032;-43
2022/01/10 11:56:30;;;;;;;;;;;;;;;16.76;47.49;102342.38;5040680;28;19935;-42
2022/01/10 11:59:07;;;;;;;;;;;;;;;16.79;47.78;102352.00;5038045;28;20295;-42
2022/01/10 12:01:34;;;;;;;;;;;;;;;16.82;47.45;102356.28;5036538;28;20128;-42
2022/01/10 12:04:02;;;;;;;;;;;;;;;16.83;47.92;102350.81;5040804;28;19933;-41
2022/01/10 12:06:29;;;;;;;;;;;;;;;16.86;47.41;102353.28;5042540;28;19975;-42
2022/01/10 12:08:55;;;;;;;;;;;;;;;16.89;47.40;102357.59;5034449;28;20109;-41
2022/01/10 12:11:25;;;;;;;;;;;;;;;16.92;48.20;102368.06;5039983;28;20043;-40
2022/01/10 12:13:53;;;;;;;;;;;;;;;16.95;47.44;102359.81;5039714;28;19943;-41
2022/01/10 12:16:20;;;;;;;;;;;;;;;16.97;47.32;102358.75;5038363;28;20020;-41
2022/01/10 12:18:46;;;;;;;;;;;;;;;17.00;47.42;102361.22;5043619;28;19925;-42
2022/01/10 12:21:13;;;;;;;;;;;;;;;17.04;47.42;102369.84;5036110;28;19933;-40
2022/01/10 12:23:41;;;;;;;;;;;;;;;17.07;48.04;102374.16;5037315;28;20232;-40
2022/01/10 12:26:07;;;;;;;;;;;;;;;17.09;47.60;102378.44;5037889;28;20012;-43
2022/01/10 12:28:33;;;;;;;;;;;;;;;17.12;47.13;102382.69;5039526;28;19937;-42
2022/01/10 12:31:02;;;;;;;;;;;;;;;17.14;46.99;102387.00;5037447;28;20011;-42
2022/01/10 12:33:29;;;;;;;;;;;;;;;17.15;47.56;102391.38;5040681;28;19925;-43
2022/01/10 12:35:56;;;;;;;;;;;;;;;17.17;47.51;102392.13;5039501;28;19931;-43
2022/01/10 12:38:24;;;;;;;;;;;;;;;17.19;46.63;102394.69;5037768;28;19947;-43
2022/01/10 12:40:51;;;;;;;;;;;;;;;17.20;46.99;102391.03;5044360;28;20236;-42
2022/01/10 12:43:17;;;;;;;;;;;;;;;17.22;46.98;102394.47;5043180;28;19929;-43